sensor_id;sensor_type;location;lat;lon;timestamp;P1;durP1;ratioP1;P2;durP2;ratioP2
6251;SDS011;3159;52.414;9.784;2022-08-24T00:02:05;2.00;;;1.07;;
6251;SDS011;3159;52.414;9.784;2022-08-24T00:04:34;1.33;;;0.90;;
6251;SDS011;3159;52.414;9.784;2022-08-24T00:07:01;2.57;;;0.97;;
6251;SDS011;3159;52.414;9.784;2022-08-24T00:09:29;2.23;;;0.97;;
6251;SDS011;3159;52.414;9.784;2022-08-24T00:11:57;1.90;;;1.00;;
6251;SDS011;3159;52.414;9.784;2022-08-24T00:14:24;1.87;;;0.90;;
6251;SDS011;3159;52.414;9.784;2022-08-24T00:16:51;1.73;;;1.20;;
6251;SDS011;3159;52.414;9.784;2022-08-24T00:19:18;2.30;;;1.03;;
6251;SDS011;3159;52.414;9.784;2022-08-24T00:21:47;2.33;;;1.00;;
6251;SDS011;3159;52.414;9.784;2022-08-24T00:24:14;1.03;;;0.90;;
6251;SDS011;3159;52.414;9.784;2022-08-24T00:26:41;2.07;;;1.10;;
6251;SDS011;3159;52.414;9.784;2022-08-24T00:29:10;1.73;;;0.90;;
6251;SDS011;3159;52.414;9.784;2022-08-24T00:31:37;1.90;;;0.83;;
6251;SDS011;3159;52.414;9.784;2022-08-24T00:34:04;3.17;;;1.07;;
6251;SDS011;3159;52.414;9.784;2022-08-24T00:36:32;1.60;;;1.00;;
6251;SDS011;3159;52.414;9.784;2022-08-24T00:39:01;2.00;;;1.03;;
6251;SDS011;3159;52.414;9.784;2022-08-24T00:41:29;1.50;;;1.30;;
6251;SDS011;3159;52.414;9.784;2022-08-24T00:43:56;1.43;;;1.10;;
6251;SDS011;3159;52.414;9.784;2022-08-24T00:46:26;2.10;;;1.00;;
6251;SDS011;3159;52.414;9.784;2022-08-24T00:48:58;1.90;;;1.20;;
6251;SDS011;3159;52.414;9.784;2022-08-24T00:51:28;2.27;;;1.07;;
6251;SDS011;3159;52.414;9.784;2022-08-24T00:54:03;2.47;;;1.20;;
6251;SDS011;3159;52.414;9.784;2022-08-24T00:56:35;3.37;;;1.40;;
6251;SDS011;3159;52.414;9.784;2022-08-24T00:59:06;1.60;;;1.10;;
6251;SDS011;3159;52.414;9.784;2022-08-24T01:01:36;1.37;;;0.90;;
6251;SDS011;3159;52.414;9.784;2022-08-24T01:04:04;2.37;;;1.07;;
6251;SDS011;3159;52.414;9.784;2022-08-24T01:06:33;3.53;;;1.20;;
6251;SDS011;3159;52.414;9.784;2022-08-24T01:09:03;1.30;;;1.10;;
6251;SDS011;3159;52.414;9.784;2022-08-24T01:11:30;4.17;;;1.10;;
6251;SDS011;3159;52.414;9.784;2022-08-24T01:13:58;1.73;;;1.20;;
6251;SDS011;3159;52.414;9.784;2022-08-24T01:16:26;4.03;;;1.60;;
6251;SDS011;3159;52.414;9.784;2022-08-24T01:19:13;1.53;;;1.10;;
6251;SDS011;3159;52.414;9.784;2022-08-24T01:21:51;1.33;;;1.17;;
6251;SDS011;3159;52.414;9.784;2022-08-24T01:24:26;2.57;;;1.17;;
6251;SDS011;3159;52.414;9.784;2022-08-24T01:26:52;2.07;;;1.03;;
6251;SDS011;3159;52.414;9.784;2022-08-24T01:29:21;4.73;;;1.20;;
6251;SDS011;3159;52.414;9.784;2022-08-24T01:31:51;1.97;;;1.23;;
6251;SDS011;3159;52.414;9.784;2022-08-24T01:34:19;3.30;;;1.33;;
6251;SDS011;3159;52.414;9.784;2022-08-24T01:36:47;2.47;;;1.00;;
6251;SDS011;3159;52.414;9.784;2022-08-24T01:39:16;2.27;;;1.00;;
6251;SDS011;3159;52.414;9.784;2022-08-24T01:41:48;2.10;;;1.47;;
6251;SDS011;3159;52.414;9.784;2022-08-24T01:44:16;1.87;;;1.30;;
6251;SDS011;3159;52.414;9.784;2022-08-24T01:46:44;3.63;;;1.30;;
6251;SDS011;3159;52.414;9.784;2022-08-24T01:49:13;1.57;;;1.03;;
6251;SDS011;3159;52.414;9.784;2022-08-24T01:51:41;1.10;;;1.00;;
6251;SDS011;3159;52.414;9.784;2022-08-24T01:54:10;4.10;;;1.30;;
6251;SDS011;3159;52.414;9.784;2022-08-24T01:56:38;2.73;;;1.20;;
6251;SDS011;3159;52.414;9.784;2022-08-24T01:59:06;4.57;;;1.37;;
6251;SDS011;3159;52.414;9.784;2022-08-24T02:01:34;4.20;;;1.00;;
6251;SDS011;3159;52.414;9.784;2022-08-24T02:04:04;2.20;;;1.20;;
6251;SDS011;3159;52.414;9.784;2022-08-24T02:06:31;3.03;;;1.10;;
6251;SDS011;3159;52.414;9.784;2022-08-24T02:08:58;1.93;;;1.07;;
6251;SDS011;3159;52.414;9.784;2022-08-24T02:11:26;2.50;;;1.30;;
6251;SDS011;3159;52.414;9.784;2022-08-24T02:13:53;1.50;;;1.10;;
6251;SDS011;3159;52.414;9.784;2022-08-24T02:16:21;3.10;;;1.47;;
6251;SDS011;3159;52.414;9.784;2022-08-24T02:18:48;2.40;;;1.40;;
6251;SDS011;3159;52.414;9.784;2022-08-24T02:21:15;5.70;;;1.47;;
6251;SDS011;3159;52.414;9.784;2022-08-24T02:23:42;1.10;;;1.00;;
6251;SDS011;3159;52.414;9.784;2022-08-24T02:26:10;3.20;;;1.07;;
6251;SDS011;3159;52.414;9.784;2022-08-24T02:28:37;1.97;;;1.10;;
6251;SDS011;3159;52.414;9.784;2022-08-24T02:31:05;2.00;;;1.30;;
6251;SDS011;3159;52.414;9.784;2022-08-24T02:33:34;1.40;;;1.07;;
6251;SDS011;3159;52.414;9.784;2022-08-24T02:36:03;1.97;;;1.40;;
6251;SDS011;3159;52.414;9.784;2022-08-24T02:38:30;5.20;;;1.70;;
6251;SDS011;3159;52.414;9.784;2022-08-24T02:40:57;2.40;;;1.33;;
6251;SDS011;3159;52.414;9.784;2022-08-24T02:43:25;3.30;;;1.20;;
6251;SDS011;3159;52.414;9.784;2022-08-24T02:45:52;1.50;;;1.20;;
6251;SDS011;3159;52.414;9.784;2022-08-24T02:48:19;5.90;;;1.40;;
6251;SDS011;3159;52.414;9.784;2022-08-24T02:50:48;2.80;;;1.23;;
6251;SDS011;3159;52.414;9.784;2022-08-24T02:53:17;5.67;;;1.60;;
6251;SDS011;3159;52.414;9.784;2022-08-24T02:55:46;3.07;;;1.20;;
6251;SDS011;3159;52.414;9.784;2022-08-24T02:58:13;4.87;;;2.10;;
6251;SDS011;3159;52.414;9.784;2022-08-24T03:00:45;2.50;;;1.60;;
6251;SDS011;3159;52.414;9.784;2022-08-24T03:03:13;2.87;;;1.50;;
6251;SDS011;3159;52.414;9.784;2022-08-24T03:05:40;3.27;;;1.33;;
6251;SDS011;3159;52.414;9.784;2022-08-24T03:08:08;2.43;;;1.30;;
6251;SDS011;3159;52.414;9.784;2022-08-24T03:10:36;1.60;;;1.13;;
6251;SDS011;3159;52.414;9.784;2022-08-24T03:13:03;1.23;;;1.13;;
6251;SDS011;3159;52.414;9.784;2022-08-24T03:15:31;3.30;;;1.40;;
6251;SDS011;3159;52.414;9.784;2022-08-24T03:17:58;4.07;;;1.50;;
6251;SDS011;3159;52.414;9.784;2022-08-24T03:20:25;1.80;;;1.20;;
6251;SDS011;3159;52.414;9.784;2022-08-24T03:22:52;1.20;;;1.10;;
6251;SDS011;3159;52.414;9.784;2022-08-24T03:25:21;2.10;;;1.33;;
6251;SDS011;3159;52.414;9.784;2022-08-24T03:27:50;2.33;;;1.50;;
6251;SDS011;3159;52.414;9.784;2022-08-24T03:30:18;2.63;;;1.37;;
6251;SDS011;3159;52.414;9.784;2022-08-24T03:32:46;1.90;;;1.50;;
6251;SDS011;3159;52.414;9.784;2022-08-24T03:35:14;1.63;;;1.30;;
6251;SDS011;3159;52.414;9.784;2022-08-24T03:37:43;2.37;;;1.47;;
6251;SDS011;3159;52.414;9.784;2022-08-24T03:40:11;3.23;;;1.27;;
6251;SDS011;3159;52.414;9.784;2022-08-24T03:42:39;4.00;;;1.40;;
6251;SDS011;3159;52.414;9.784;2022-08-24T03:45:07;2.03;;;1.43;;
6251;SDS011;3159;52.414;9.784;2022-08-24T03:47:34;1.40;;;1.30;;
6251;SDS011;3159;52.414;9.784;2022-08-24T03:50:02;1.30;;;1.20;;
6251;SDS011;3159;52.414;9.784;2022-08-24T03:52:31;4.17;;;1.40;;
6251;SDS011;3159;52.414;9.784;2022-08-24T03:54:59;2.43;;;1.50;;
6251;SDS011;3159;52.414;9.784;2022-08-24T03:57:26;3.73;;;1.50;;
6251;SDS011;3159;52.414;9.784;2022-08-24T03:59:54;2.67;;;1.50;;
6251;SDS011;3159;52.414;9.784;2022-08-24T04:02:21;1.13;;;1.03;;
6251;SDS011;3159;52.414;9.784;2022-08-24T04:04:48;2.70;;;1.23;;
6251;SDS011;3159;52.414;9.784;2022-08-24T04:07:15;1.83;;;1.47;;
6251;SDS011;3159;52.414;9.784;2022-08-24T04:09:42;1.87;;;1.43;;
6251;SDS011;3159;52.414;9.784;2022-08-24T04:12:09;3.17;;;1.47;;
6251;SDS011;3159;52.414;9.784;2022-08-24T04:14:36;3.70;;;1.30;;
6251;SDS011;3159;52.414;9.784;2022-08-24T04:17:06;1.10;;;1.00;;
6251;SDS011;3159;52.414;9.784;2022-08-24T04:19:33;1.63;;;1.47;;
6251;SDS011;3159;52.414;9.784;2022-08-24T04:22:00;3.03;;;1.40;;
6251;SDS011;3159;52.414;9.784;2022-08-24T04:24:27;3.27;;;1.50;;
6251;SDS011;3159;52.414;9.784;2022-08-24T04:26:56;2.27;;;1.30;;
6251;SDS011;3159;52.414;9.784;2022-08-24T04:29:23;2.87;;;1.80;;
6251;SDS011;3159;52.414;9.784;2022-08-24T04:31:50;1.43;;;1.30;;
6251;SDS011;3159;52.414;9.784;2022-08-24T04:34:18;1.60;;;1.13;;
6251;SDS011;3159;52.414;9.784;2022-08-24T04:36:45;1.47;;;1.27;;
6251;SDS011;3159;52.414;9.784;2022-08-24T04:39:12;1.97;;;1.30;;
6251;SDS011;3159;52.414;9.784;2022-08-24T04:41:39;2.37;;;1.60;;
6251;SDS011;3159;52.414;9.784;2022-08-24T04:44:06;3.53;;;1.60;;
6251;SDS011;3159;52.414;9.784;2022-08-24T04:46:33;2.83;;;1.57;;
6251;SDS011;3159;52.414;9.784;2022-08-24T04:49:00;2.20;;;1.40;;
6251;SDS011;3159;52.414;9.784;2022-08-24T04:51:29;2.03;;;1.30;;
6251;SDS011;3159;52.414;9.784;2022-08-24T04:53:56;2.77;;;1.60;;
6251;SDS011;3159;52.414;9.784;2022-08-24T04:56:24;2.63;;;1.50;;
6251;SDS011;3159;52.414;9.784;2022-08-24T04:58:52;3.10;;;1.40;;
6251;SDS011;3159;52.414;9.784;2022-08-24T05:01:21;4.53;;;1.67;;
6251;SDS011;3159;52.414;9.784;2022-08-24T05:03:50;1.30;;;1.17;;
6251;SDS011;3159;52.414;9.784;2022-08-24T05:06:19;2.03;;;1.80;;
6251;SDS011;3159;52.414;9.784;2022-08-24T05:08:48;2.10;;;1.60;;
6251;SDS011;3159;52.414;9.784;2022-08-24T05:11:16;2.90;;;1.47;;
6251;SDS011;3159;52.414;9.784;2022-08-24T05:13:45;2.20;;;1.50;;
6251;SDS011;3159;52.414;9.784;2022-08-24T05:16:13;2.93;;;1.40;;
6251;SDS011;3159;52.414;9.784;2022-08-24T05:18:43;5.93;;;1.73;;
6251;SDS011;3159;52.414;9.784;2022-08-24T05:21:11;1.93;;;1.30;;
6251;SDS011;3159;52.414;9.784;2022-08-24T05:23:39;3.03;;;1.80;;
6251;SDS011;3159;52.414;9.784;2022-08-24T05:26:09;2.03;;;1.50;;
6251;SDS011;3159;52.414;9.784;2022-08-24T05:28:38;2.37;;;1.70;;
6251;SDS011;3159;52.414;9.784;2022-08-24T05:31:06;2.67;;;1.60;;
6251;SDS011;3159;52.414;9.784;2022-08-24T05:33:35;5.27;;;2.00;;
6251;SDS011;3159;52.414;9.784;2022-08-24T05:36:03;1.97;;;1.60;;
6251;SDS011;3159;52.414;9.784;2022-08-24T05:38:31;3.37;;;2.27;;
6251;SDS011;3159;52.414;9.784;2022-08-24T05:41:02;4.83;;;1.93;;
6251;SDS011;3159;52.414;9.784;2022-08-24T05:43:31;2.97;;;1.80;;
6251;SDS011;3159;52.414;9.784;2022-08-24T05:45:58;2.60;;;2.00;;
6251;SDS011;3159;52.414;9.784;2022-08-24T05:48:25;2.23;;;2.00;;
6251;SDS011;3159;52.414;9.784;2022-08-24T05:50:53;3.23;;;1.83;;
6251;SDS011;3159;52.414;9.784;2022-08-24T05:53:20;3.20;;;2.30;;
6251;SDS011;3159;52.414;9.784;2022-08-24T05:55:48;3.53;;;1.93;;
6251;SDS011;3159;52.414;9.784;2022-08-24T05:58:16;3.13;;;1.77;;
6251;SDS011;3159;52.414;9.784;2022-08-24T06:00:44;7.53;;;2.23;;
6251;SDS011;3159;52.414;9.784;2022-08-24T06:03:12;6.20;;;2.07;;
6251;SDS011;3159;52.414;9.784;2022-08-24T06:05:39;10.47;;;2.40;;
6251;SDS011;3159;52.414;9.784;2022-08-24T06:08:06;3.23;;;1.87;;
6251;SDS011;3159;52.414;9.784;2022-08-24T06:10:40;4.93;;;2.00;;
6251;SDS011;3159;52.414;9.784;2022-08-24T06:13:26;4.80;;;2.30;;
6251;SDS011;3159;52.414;9.784;2022-08-24T06:16:12;6.37;;;2.57;;
6251;SDS011;3159;52.414;9.784;2022-08-24T06:22:39;4.53;;;2.00;;
6251;SDS011;3159;52.414;9.784;2022-08-24T06:25:23;5.77;;;1.93;;
6251;SDS011;3159;52.414;9.784;2022-08-24T06:31:06;3.60;;;2.00;;
6251;SDS011;3159;52.414;9.784;2022-08-24T06:33:35;3.87;;;2.20;;
6251;SDS011;3159;52.414;9.784;2022-08-24T06:36:02;3.90;;;2.47;;
6251;SDS011;3159;52.414;9.784;2022-08-24T06:38:29;5.83;;;2.37;;
6251;SDS011;3159;52.414;9.784;2022-08-24T06:40:57;4.80;;;2.40;;
6251;SDS011;3159;52.414;9.784;2022-08-24T06:43:24;4.40;;;2.43;;
6251;SDS011;3159;52.414;9.784;2022-08-24T06:45:51;4.23;;;2.70;;
6251;SDS011;3159;52.414;9.784;2022-08-24T06:48:20;4.27;;;1.73;;
6251;SDS011;3159;52.414;9.784;2022-08-24T06:50:49;5.57;;;2.40;;
6251;SDS011;3159;52.414;9.784;2022-08-24T06:53:16;3.57;;;1.70;;
6251;SDS011;3159;52.414;9.784;2022-08-24T06:55:43;3.90;;;2.23;;
6251;SDS011;3159;52.414;9.784;2022-08-24T06:58:11;3.83;;;2.30;;
6251;SDS011;3159;52.414;9.784;2022-08-24T07:00:38;4.47;;;2.13;;
6251;SDS011;3159;52.414;9.784;2022-08-24T07:03:06;5.63;;;1.97;;
6251;SDS011;3159;52.414;9.784;2022-08-24T07:05:33;3.37;;;1.57;;
6251;SDS011;3159;52.414;9.784;2022-08-24T07:08:01;4.43;;;2.20;;
6251;SDS011;3159;52.414;9.784;2022-08-24T07:10:29;4.37;;;2.20;;
6251;SDS011;3159;52.414;9.784;2022-08-24T07:12:56;5.83;;;2.20;;
6251;SDS011;3159;52.414;9.784;2022-08-24T07:15:24;4.43;;;2.40;;
6251;SDS011;3159;52.414;9.784;2022-08-24T07:17:51;4.50;;;2.30;;
6251;SDS011;3159;52.414;9.784;2022-08-24T07:20:19;9.73;;;2.23;;
6251;SDS011;3159;52.414;9.784;2022-08-24T07:22:45;6.30;;;2.37;;
6251;SDS011;3159;52.414;9.784;2022-08-24T07:25:14;5.43;;;2.10;;
6251;SDS011;3159;52.414;9.784;2022-08-24T07:27:41;4.40;;;2.37;;
6251;SDS011;3159;52.414;9.784;2022-08-24T07:30:08;6.30;;;2.20;;
6251;SDS011;3159;52.414;9.784;2022-08-24T07:32:36;3.23;;;2.00;;
6251;SDS011;3159;52.414;9.784;2022-08-24T07:35:03;6.30;;;2.13;;
6251;SDS011;3159;52.414;9.784;2022-08-24T07:37:31;2.47;;;1.90;;
6251;SDS011;3159;52.414;9.784;2022-08-24T07:39:58;7.13;;;2.37;;
6251;SDS011;3159;52.414;9.784;2022-08-24T07:42:27;2.43;;;1.77;;
6251;SDS011;3159;52.414;9.784;2022-08-24T07:44:54;5.00;;;2.20;;
6251;SDS011;3159;52.414;9.784;2022-08-24T07:47:21;3.67;;;1.90;;
6251;SDS011;3159;52.414;9.784;2022-08-24T07:49:48;11.53;;;2.23;;
6251;SDS011;3159;52.414;9.784;2022-08-24T07:52:15;4.17;;;1.70;;
6251;SDS011;3159;52.414;9.784;2022-08-24T07:54:43;4.80;;;1.97;;
6251;SDS011;3159;52.414;9.784;2022-08-24T07:57:10;3.07;;;1.93;;
6251;SDS011;3159;52.414;9.784;2022-08-24T07:59:39;4.97;;;2.37;;
6251;SDS011;3159;52.414;9.784;2022-08-24T08:02:06;5.30;;;2.23;;
6251;SDS011;3159;52.414;9.784;2022-08-24T08:04:34;5.83;;;2.00;;
6251;SDS011;3159;52.414;9.784;2022-08-24T08:07:01;8.00;;;2.20;;
6251;SDS011;3159;52.414;9.784;2022-08-24T08:09:30;4.80;;;2.40;;
6251;SDS011;3159;52.414;9.784;2022-08-24T08:11:57;3.40;;;2.10;;
6251;SDS011;3159;52.414;9.784;2022-08-24T08:14:24;5.00;;;1.80;;
6251;SDS011;3159;52.414;9.784;2022-08-24T08:16:52;4.87;;;1.93;;
6251;SDS011;3159;52.414;9.784;2022-08-24T08:19:19;6.13;;;1.90;;
6251;SDS011;3159;52.414;9.784;2022-08-24T08:21:47;8.63;;;1.70;;
6251;SDS011;3159;52.414;9.784;2022-08-24T08:24:33;4.97;;;1.90;;
6251;SDS011;3159;52.414;9.784;2022-08-24T08:27:02;4.33;;;2.50;;
6251;SDS011;3159;52.414;9.784;2022-08-24T08:29:29;4.80;;;1.97;;
6251;SDS011;3159;52.414;9.784;2022-08-24T08:31:59;5.57;;;2.00;;
6251;SDS011;3159;52.414;9.784;2022-08-24T08:34:26;4.67;;;1.63;;
6251;SDS011;3159;52.414;9.784;2022-08-24T08:36:54;5.63;;;1.80;;
6251;SDS011;3159;52.414;9.784;2022-08-24T08:39:21;4.97;;;2.07;;
6251;SDS011;3159;52.414;9.784;2022-08-24T08:41:57;5.40;;;2.33;;
6251;SDS011;3159;52.414;9.784;2022-08-24T08:44:50;4.60;;;2.10;;
6251;SDS011;3159;52.414;9.784;2022-08-24T08:50:35;4.50;;;1.77;;
6251;SDS011;3159;52.414;9.784;2022-08-24T08:56:19;2.43;;;1.67;;
6251;SDS011;3159;52.414;9.784;2022-08-24T08:58:55;4.97;;;1.63;;
6251;SDS011;3159;52.414;9.784;2022-08-24T09:01:30;6.13;;;1.80;;
6251;SDS011;3159;52.414;9.784;2022-08-24T09:04:17;3.97;;;1.63;;
6251;SDS011;3159;52.414;9.784;2022-08-24T09:07:09;5.37;;;1.80;;
6251;SDS011;3159;52.414;9.784;2022-08-24T09:12:36;4.37;;;1.97;;
6251;SDS011;3159;52.414;9.784;2022-08-24T09:15:19;7.80;;;2.00;;
6251;SDS011;3159;52.414;9.784;2022-08-24T09:18:10;2.63;;;1.53;;
6251;SDS011;3159;52.414;9.784;2022-08-24T09:20:57;2.60;;;1.67;;
6251;SDS011;3159;52.414;9.784;2022-08-24T09:23:46;5.53;;;1.70;;
6251;SDS011;3159;52.414;9.784;2022-08-24T09:26:25;7.30;;;1.77;;
6251;SDS011;3159;52.414;9.784;2022-08-24T09:28:59;3.60;;;1.93;;
6251;SDS011;3159;52.414;9.784;2022-08-24T09:31:38;4.40;;;1.70;;
6251;SDS011;3159;52.414;9.784;2022-08-24T09:34:17;5.03;;;1.50;;
6251;SDS011;3159;52.414;9.784;2022-08-24T09:36:57;3.63;;;1.60;;
6251;SDS011;3159;52.414;9.784;2022-08-24T09:39:35;3.03;;;1.63;;
6251;SDS011;3159;52.414;9.784;2022-08-24T09:42:18;4.50;;;1.90;;
6251;SDS011;3159;52.414;9.784;2022-08-24T09:45:16;2.07;;;1.33;;
6251;SDS011;3159;52.414;9.784;2022-08-24T09:57:18;3.23;;;1.87;;
6251;SDS011;3159;52.414;9.784;2022-08-24T10:00:03;4.10;;;1.40;;
6251;SDS011;3159;52.414;9.784;2022-08-24T10:02:44;5.53;;;2.33;;
6251;SDS011;3159;52.414;9.784;2022-08-24T10:05:20;3.13;;;1.40;;
6251;SDS011;3159;52.414;9.784;2022-08-24T10:07:57;2.70;;;1.80;;
6251;SDS011;3159;52.414;9.784;2022-08-24T10:10:34;2.03;;;1.40;;
6251;SDS011;3159;52.414;9.784;2022-08-24T10:13:15;2.97;;;1.67;;
6251;SDS011;3159;52.414;9.784;2022-08-24T10:15:50;2.40;;;1.43;;
6251;SDS011;3159;52.414;9.784;2022-08-24T10:18:37;4.97;;;1.47;;
6251;SDS011;3159;52.414;9.784;2022-08-24T10:21:12;2.23;;;1.30;;
6251;SDS011;3159;52.414;9.784;2022-08-24T10:24:06;3.53;;;1.40;;
6251;SDS011;3159;52.414;9.784;2022-08-24T10:26:54;2.37;;;1.30;;
6251;SDS011;3159;52.414;9.784;2022-08-24T10:29:38;2.53;;;1.40;;
6251;SDS011;3159;52.414;9.784;2022-08-24T10:32:21;4.27;;;1.20;;
6251;SDS011;3159;52.414;9.784;2022-08-24T10:34:59;3.13;;;1.33;;
6251;SDS011;3159;52.414;9.784;2022-08-24T10:41:01;3.37;;;1.40;;
6251;SDS011;3159;52.414;9.784;2022-08-24T10:44:03;3.37;;;1.30;;
6251;SDS011;3159;52.414;9.784;2022-08-24T10:46:46;2.80;;;1.50;;
6251;SDS011;3159;52.414;9.784;2022-08-24T10:52:15;4.27;;;1.50;;
6251;SDS011;3159;52.414;9.784;2022-08-24T10:55:10;4.80;;;1.60;;
6251;SDS011;3159;52.414;9.784;2022-08-24T10:57:42;4.20;;;1.37;;
6251;SDS011;3159;52.414;9.784;2022-08-24T11:00:17;1.97;;;1.17;;
6251;SDS011;3159;52.414;9.784;2022-08-24T11:02:47;2.57;;;1.10;;
6251;SDS011;3159;52.414;9.784;2022-08-24T11:05:16;2.83;;;1.10;;
6251;SDS011;3159;52.414;9.784;2022-08-24T11:07:55;2.80;;;0.93;;
6251;SDS011;3159;52.414;9.784;2022-08-24T11:10:24;2.83;;;1.80;;
6251;SDS011;3159;52.414;9.784;2022-08-24T11:12:54;2.37;;;1.10;;
6251;SDS011;3159;52.414;9.784;2022-08-24T11:15:38;1.70;;;1.40;;
6251;SDS011;3159;52.414;9.784;2022-08-24T11:18:16;1.80;;;1.20;;
6251;SDS011;3159;52.414;9.784;2022-08-24T11:20:45;4.00;;;1.40;;
6251;SDS011;3159;52.414;9.784;2022-08-24T11:23:14;1.50;;;1.20;;
6251;SDS011;3159;52.414;9.784;2022-08-24T11:25:52;2.27;;;1.33;;
6251;SDS011;3159;52.414;9.784;2022-08-24T11:28:24;2.70;;;1.20;;
6251;SDS011;3159;52.414;9.784;2022-08-24T11:30:55;1.77;;;1.17;;
6251;SDS011;3159;52.414;9.784;2022-08-24T11:33:26;2.53;;;1.20;;
6251;SDS011;3159;52.414;9.784;2022-08-24T11:35:55;1.57;;;1.30;;
6251;SDS011;3159;52.414;9.784;2022-08-24T11:38:25;3.03;;;1.30;;
6251;SDS011;3159;52.414;9.784;2022-08-24T11:40:54;2.27;;;1.00;;
6251;SDS011;3159;52.414;9.784;2022-08-24T11:43:35;2.50;;;1.40;;
6251;SDS011;3159;52.414;9.784;2022-08-24T11:46:15;2.80;;;1.50;;
6251;SDS011;3159;52.414;9.784;2022-08-24T11:48:55;2.70;;;1.47;;
6251;SDS011;3159;52.414;9.784;2022-08-24T11:51:33;2.90;;;1.77;;
6251;SDS011;3159;52.414;9.784;2022-08-24T11:54:07;2.37;;;1.57;;
6251;SDS011;3159;52.414;9.784;2022-08-24T11:56:44;2.37;;;1.40;;
6251;SDS011;3159;52.414;9.784;2022-08-24T11:59:17;1.67;;;1.03;;
6251;SDS011;3159;52.414;9.784;2022-08-24T12:01:50;1.50;;;1.33;;
6251;SDS011;3159;52.414;9.784;2022-08-24T12:04:36;3.60;;;1.40;;
6251;SDS011;3159;52.414;9.784;2022-08-24T12:07:14;1.53;;;1.20;;
6251;SDS011;3159;52.414;9.784;2022-08-24T12:09:58;1.83;;;1.20;;
6251;SDS011;3159;52.414;9.784;2022-08-24T12:12:36;3.57;;;1.13;;
6251;SDS011;3159;52.414;9.784;2022-08-24T12:15:11;1.80;;;1.20;;
6251;SDS011;3159;52.414;9.784;2022-08-24T12:17:42;2.20;;;0.90;;
6251;SDS011;3159;52.414;9.784;2022-08-24T12:20:23;2.70;;;1.40;;
6251;SDS011;3159;52.414;9.784;2022-08-24T12:23:01;2.80;;;1.20;;
6251;SDS011;3159;52.414;9.784;2022-08-24T12:25:30;1.40;;;1.00;;
6251;SDS011;3159;52.414;9.784;2022-08-24T12:28:18;1.30;;;1.10;;
6251;SDS011;3159;52.414;9.784;2022-08-24T12:30:49;3.43;;;1.30;;
6251;SDS011;3159;52.414;9.784;2022-08-24T12:33:20;2.83;;;1.50;;
6251;SDS011;3159;52.414;9.784;2022-08-24T12:35:55;2.17;;;1.40;;
6251;SDS011;3159;52.414;9.784;2022-08-24T12:38:26;2.23;;;1.13;;
6251;SDS011;3159;52.414;9.784;2022-08-24T12:41:00;1.50;;;1.20;;
6251;SDS011;3159;52.414;9.784;2022-08-24T12:43:34;1.80;;;1.30;;
6251;SDS011;3159;52.414;9.784;2022-08-24T12:46:07;3.20;;;1.67;;
6251;SDS011;3159;52.414;9.784;2022-08-24T12:48:38;4.30;;;1.47;;
6251;SDS011;3159;52.414;9.784;2022-08-24T12:51:15;2.03;;;1.30;;
6251;SDS011;3159;52.414;9.784;2022-08-24T12:56:45;3.30;;;1.13;;
6251;SDS011;3159;52.414;9.784;2022-08-24T12:59:30;2.80;;;1.40;;
6251;SDS011;3159;52.414;9.784;2022-08-24T13:02:04;2.50;;;1.33;;
6251;SDS011;3159;52.414;9.784;2022-08-24T13:04:38;4.57;;;1.30;;
6251;SDS011;3159;52.414;9.784;2022-08-24T13:07:10;1.87;;;1.40;;
6251;SDS011;3159;52.414;9.784;2022-08-24T13:10:02;1.80;;;1.00;;
6251;SDS011;3159;52.414;9.784;2022-08-24T13:12:50;3.97;;;1.40;;
6251;SDS011;3159;52.414;9.784;2022-08-24T13:15:23;1.50;;;1.23;;
6251;SDS011;3159;52.414;9.784;2022-08-24T13:30:49;5.13;;;1.90;;
6251;SDS011;3159;52.414;9.784;2022-08-24T13:33:41;2.93;;;1.50;;
6251;SDS011;3159;52.414;9.784;2022-08-24T13:39:05;1.77;;;1.53;;
6251;SDS011;3159;52.414;9.784;2022-08-24T13:42:01;1.43;;;1.33;;
6251;SDS011;3159;52.414;9.784;2022-08-24T13:44:50;2.30;;;1.33;;
6251;SDS011;3159;52.414;9.784;2022-08-24T13:47:44;1.60;;;1.37;;
6251;SDS011;3159;52.414;9.784;2022-08-24T13:50:26;1.43;;;1.27;;
6251;SDS011;3159;52.414;9.784;2022-08-24T13:53:04;1.50;;;1.40;;
6251;SDS011;3159;52.414;9.784;2022-08-24T13:55:50;1.67;;;1.33;;
6251;SDS011;3159;52.414;9.784;2022-08-24T13:58:22;2.17;;;1.43;;
6251;SDS011;3159;52.414;9.784;2022-08-24T14:01:02;2.00;;;1.57;;
6251;SDS011;3159;52.414;9.784;2022-08-24T14:03:54;2.70;;;1.53;;
6251;SDS011;3159;52.414;9.784;2022-08-24T14:06:31;2.37;;;1.23;;
6251;SDS011;3159;52.414;9.784;2022-08-24T14:09:15;1.77;;;1.40;;
6251;SDS011;3159;52.414;9.784;2022-08-24T14:11:58;3.40;;;1.80;;
6251;SDS011;3159;52.414;9.784;2022-08-24T14:14:45;2.13;;;1.53;;
6251;SDS011;3159;52.414;9.784;2022-08-24T14:17:28;3.57;;;1.73;;
6251;SDS011;3159;52.414;9.784;2022-08-24T14:20:21;2.03;;;1.50;;
6251;SDS011;3159;52.414;9.784;2022-08-24T14:23:12;1.47;;;1.30;;
6251;SDS011;3159;52.414;9.784;2022-08-24T14:25:49;3.37;;;1.60;;
6251;SDS011;3159;52.414;9.784;2022-08-24T14:28:24;3.07;;;1.77;;
6251;SDS011;3159;52.414;9.784;2022-08-24T14:31:12;1.87;;;1.50;;
6251;SDS011;3159;52.414;9.784;2022-08-24T14:33:43;1.63;;;1.50;;
6251;SDS011;3159;52.414;9.784;2022-08-24T14:36:19;2.80;;;1.77;;
6251;SDS011;3159;52.414;9.784;2022-08-24T14:38:54;2.10;;;1.90;;
6251;SDS011;3159;52.414;9.784;2022-08-24T14:41:38;2.33;;;1.60;;
6251;SDS011;3159;52.414;9.784;2022-08-24T14:47:20;1.63;;;1.33;;
6251;SDS011;3159;52.414;9.784;2022-08-24T14:50:02;2.37;;;1.73;;
6251;SDS011;3159;52.414;9.784;2022-08-24T14:55:51;1.83;;;1.23;;
6251;SDS011;3159;52.414;9.784;2022-08-24T14:58:27;3.13;;;2.00;;
6251;SDS011;3159;52.414;9.784;2022-08-24T15:01:11;2.57;;;1.70;;
6251;SDS011;3159;52.414;9.784;2022-08-24T15:03:59;1.63;;;1.40;;
6251;SDS011;3159;52.414;9.784;2022-08-24T15:06:39;1.60;;;1.40;;
6251;SDS011;3159;52.414;9.784;2022-08-24T15:09:22;5.60;;;1.90;;
6251;SDS011;3159;52.414;9.784;2022-08-24T15:11:51;2.50;;;1.50;;
6251;SDS011;3159;52.414;9.784;2022-08-24T15:14:25;3.57;;;1.63;;
6251;SDS011;3159;52.414;9.784;2022-08-24T15:17:02;3.63;;;1.53;;
6251;SDS011;3159;52.414;9.784;2022-08-24T15:19:34;2.80;;;1.40;;
6251;SDS011;3159;52.414;9.784;2022-08-24T15:22:13;2.37;;;1.40;;
6251;SDS011;3159;52.414;9.784;2022-08-24T15:24:54;3.33;;;1.50;;
6251;SDS011;3159;52.414;9.784;2022-08-24T15:27:31;2.07;;;1.70;;
6251;SDS011;3159;52.414;9.784;2022-08-24T15:30:06;3.13;;;1.53;;
6251;SDS011;3159;52.414;9.784;2022-08-24T15:32:47;2.73;;;1.50;;
6251;SDS011;3159;52.414;9.784;2022-08-24T15:35:21;1.60;;;1.50;;
6251;SDS011;3159;52.414;9.784;2022-08-24T15:37:50;1.67;;;1.50;;
6251;SDS011;3159;52.414;9.784;2022-08-24T15:40:22;3.17;;;1.57;;
6251;SDS011;3159;52.414;9.784;2022-08-24T15:42:53;3.03;;;1.40;;
6251;SDS011;3159;52.414;9.784;2022-08-24T15:45:22;2.93;;;1.40;;
6251;SDS011;3159;52.414;9.784;2022-08-24T15:47:50;2.20;;;1.50;;
6251;SDS011;3159;52.414;9.784;2022-08-24T15:50:20;1.93;;;1.37;;
6251;SDS011;3159;52.414;9.784;2022-08-24T15:52:50;2.53;;;1.70;;
6251;SDS011;3159;52.414;9.784;2022-08-24T15:55:34;1.47;;;1.30;;
6251;SDS011;3159;52.414;9.784;2022-08-24T15:58:11;1.50;;;1.40;;
6251;SDS011;3159;52.414;9.784;2022-08-24T16:00:57;2.13;;;1.30;;
6251;SDS011;3159;52.414;9.784;2022-08-24T16:03:45;1.97;;;1.43;;
6251;SDS011;3159;52.414;9.784;2022-08-24T16:06:20;4.37;;;1.40;;
6251;SDS011;3159;52.414;9.784;2022-08-24T16:08:54;2.70;;;1.20;;
6251;SDS011;3159;52.414;9.784;2022-08-24T16:11:29;1.60;;;1.37;;
6251;SDS011;3159;52.414;9.784;2022-08-24T16:13:58;1.77;;;1.67;;
6251;SDS011;3159;52.414;9.784;2022-08-24T16:16:30;4.50;;;1.50;;
6251;SDS011;3159;52.414;9.784;2022-08-24T16:19:00;1.40;;;1.30;;
6251;SDS011;3159;52.414;9.784;2022-08-24T16:21:29;2.13;;;1.63;;
6251;SDS011;3159;52.414;9.784;2022-08-24T16:24:00;1.73;;;1.20;;
6251;SDS011;3159;52.414;9.784;2022-08-24T16:26:32;1.50;;;1.27;;
6251;SDS011;3159;52.414;9.784;2022-08-24T16:32:20;4.63;;;1.60;;
6251;SDS011;3159;52.414;9.784;2022-08-24T16:34:50;4.30;;;1.60;;
6251;SDS011;3159;52.414;9.784;2022-08-24T16:37:18;1.33;;;1.23;;
6251;SDS011;3159;52.414;9.784;2022-08-24T16:39:47;2.57;;;1.70;;
6251;SDS011;3159;52.414;9.784;2022-08-24T16:42:17;1.53;;;1.43;;
6251;SDS011;3159;52.414;9.784;2022-08-24T16:44:48;3.00;;;1.50;;
6251;SDS011;3159;52.414;9.784;2022-08-24T16:47:16;1.70;;;1.40;;
6251;SDS011;3159;52.414;9.784;2022-08-24T16:49:44;2.47;;;1.23;;